Time;durP1;ratioP1;P1;durP2;ratioP2;P2;SDS_P1;SDS_P2;PMS_P1;PMS_P2;Temp;Humidity;BMP_temperature;BMP_pressure;BME280_temperature;BME280_humidity;BME280_pressure;Samples;Min_cycle;Max_cycle;Signal;HPM_P1;HPM_P2
2021/01/25 00:01:45;;;;;;;;;;;-1.40;99.90;;;;;;5094233;28;20408;-75
2021/01/25 00:04:10;;;;;;;;;;;-1.40;99.90;;;;;;5093219;28;20349;-75
2021/01/25 00:06:36;;;;;;;;;;;-1.50;99.90;;;;;;5082792;28;20380;-76
2021/01/25 00:09:02;;;;;;;;;;;-1.40;99.90;;;;;;5083762;28;20271;-75
2021/01/25 00:11:27;;;;;;;;;;;-1.50;99.90;;;;;;5070832;28;19908;-75
2021/01/25 00:13:53;;;;;;;;;;;-1.40;99.90;;;;;;5070563;28;20495;-76
2021/01/25 00:16:18;;;;;;;;;;;-1.40;99.90;;;;;;5073674;28;19916;-75
2021/01/25 00:18:44;;;;;;;;;;;-1.40;99.90;;;;;;5072199;28;20285;-77
2021/01/25 00:21:09;;;;;;;;;;;-1.50;99.90;;;;;;5072890;28;20003;-76
2021/01/25 00:23:34;;;;;;;;;;;-1.50;99.90;;;;;;5082287;28;19919;-75
2021/01/25 00:26:00;;;;;;;;;;;-1.50;99.90;;;;;;5092662;28;20268;-77
2021/01/25 00:28:25;;;;;;;;;;;-1.50;99.90;;;;;;5083321;28;19915;-75
2021/01/25 00:30:51;;;;;;;;;;;-1.60;99.90;;;;;;5079353;28;19920;-75
2021/01/25 00:33:16;;;;;;;;;;;-1.60;99.90;;;;;;5072194;28;20012;-76
2021/01/25 00:35:42;;;;;;;;;;;-1.70;99.90;;;;;;5072996;28;19958;-75
2021/01/25 00:38:10;;;;;;;;;;;-1.80;99.90;;;;;;5073993;28;20217;-75
2021/01/25 00:40:36;;;;;;;;;;;-1.90;99.90;;;;;;5073348;28;20392;-75
2021/01/25 00:43:01;;;;;;;;;;;-1.90;99.90;;;;;;5073203;28;19912;-75
2021/01/25 00:45:27;;;;;;;;;;;-2.10;99.90;;;;;;5073641;28;19961;-76
2021/01/25 00:47:52;;;;;;;;;;;-2.10;99.90;;;;;;5073216;28;19912;-77
2021/01/25 00:50:18;;;;;;;;;;;-2.10;99.90;;;;;;5071804;28;19912;-78
2021/01/25 00:52:43;;;;;;;;;;;-2.10;99.90;;;;;;5073065;28;19963;-75
2021/01/25 00:55:10;;;;;;;;;;;-2.20;99.90;;;;;;5073067;28;19909;-75
2021/01/25 00:57:38;;;;;;;;;;;-2.20;99.90;;;;;;5080789;28;19908;-75
2021/01/25 01:00:08;;;;;;;;;;;-2.20;99.90;;;;;;5084780;28;19915;-78
2021/01/25 01:02:34;;;;;;;;;;;-2.30;99.90;;;;;;5072682;28;19908;-76
2021/01/25 01:04:59;;;;;;;;;;;-2.40;99.90;;;;;;5071207;28;19915;-77
2021/01/25 01:07:25;;;;;;;;;;;-2.40;99.90;;;;;;5072309;28;19923;-78
2021/01/25 01:09:50;;;;;;;;;;;-2.50;99.90;;;;;;5085961;28;20381;-75
2021/01/25 01:12:16;;;;;;;;;;;-2.50;99.90;;;;;;5072613;28;19948;-75
2021/01/25 01:14:41;;;;;;;;;;;-2.50;99.90;;;;;;5072691;28;19908;-77
2021/01/25 01:17:07;;;;;;;;;;;-2.50;99.90;;;;;;5072195;28;20277;-75
2021/01/25 01:19:32;;;;;;;;;;;-2.40;99.90;;;;;;5072339;28;19916;-77
2021/01/25 01:21:58;;;;;;;;;;;-2.40;99.90;;;;;;5071099;28;19960;-76
2021/01/25 01:24:23;;;;;;;;;;;-2.40;99.90;;;;;;5091991;28;19912;-77
2021/01/25 01:26:49;;;;;;;;;;;-2.40;99.90;;;;;;5086635;28;19913;-75
2021/01/25 01:29:14;;;;;;;;;;;-2.40;99.90;;;;;;5087754;28;19908;-75
2021/01/25 01:31:39;;;;;;;;;;;-2.40;99.90;;;;;;5073471;28;19962;-76
2021/01/25 01:34:05;;;;;;;;;;;-2.40;99.90;;;;;;5072267;28;19954;-76
2021/01/25 01:36:31;;;;;;;;;;;-2.40;99.90;;;;;;5075877;28;19919;-75
2021/01/25 01:38:56;;;;;;;;;;;-2.40;99.90;;;;;;5091818;28;19908;-75
2021/01/25 01:41:22;;;;;;;;;;;-2.40;99.90;;;;;;5091481;28;19912;-77
2021/01/25 01:43:47;;;;;;;;;;;-2.30;99.90;;;;;;5091579;28;19908;-75
2021/01/25 01:46:13;;;;;;;;;;;-2.20;99.90;;;;;;5090964;28;19966;-75
2021/01/25 01:48:39;;;;;;;;;;;-2.10;99.90;;;;;;5091797;28;19915;-75
2021/01/25 01:51:05;;;;;;;;;;;-2.00;99.90;;;;;;5091313;28;20113;-76
2021/01/25 01:53:30;;;;;;;;;;;-2.00;99.90;;;;;;5073287;28;19909;-75
2021/01/25 01:55:56;;;;;;;;;;;-2.00;99.90;;;;;;5071432;28;19909;-79
2021/01/25 01:58:22;;;;;;;;;;;-2.10;99.90;;;;;;5086316;28;20379;-76
2021/01/25 02:00:48;;;;;;;;;;;-2.10;99.90;;;;;;5078640;28;20284;-75
2021/01/25 02:03:14;;;;;;;;;;;-2.00;99.90;;;;;;5071748;28;19912;-75
2021/01/25 02:05:40;;;;;;;;;;;-2.00;99.90;;;;;;5071455;28;20179;-75
2021/01/25 02:08:06;;;;;;;;;;;-1.90;99.90;;;;;;5071723;28;19925;-75
2021/01/25 02:10:32;;;;;;;;;;;-1.90;99.90;;;;;;5073845;28;20214;-75
2021/01/25 02:12:59;;;;;;;;;;;-1.80;99.90;;;;;;5091115;28;19926;-75
2021/01/25 02:15:25;;;;;;;;;;;-1.70;99.90;;;;;;5090683;28;19908;-78
2021/01/25 02:17:51;;;;;;;;;;;-1.70;99.90;;;;;;5090359;28;20327;-75
2021/01/25 02:20:22;;;;;;;;;;;-1.70;99.90;;;;;;5088164;28;19912;-75
2021/01/25 02:22:57;;;;;;;;;;;-1.70;99.90;;;;;;5071601;28;19909;-75
2021/01/25 02:25:25;;;;;;;;;;;-1.70;99.90;;;;;;5071260;28;20361;-75
2021/01/25 02:27:51;;;;;;;;;;;-1.70;99.90;;;;;;5071460;28;19923;-75
2021/01/25 02:30:17;;;;;;;;;;;-1.70;99.90;;;;;;5077107;28;19913;-77
2021/01/25 02:32:43;;;;;;;;;;;-1.60;99.90;;;;;;5071258;28;19927;-75
2021/01/25 02:35:11;;;;;;;;;;;-1.60;99.90;;;;;;5071440;28;19912;-77
2021/01/25 02:37:37;;;;;;;;;;;-1.60;99.90;;;;;;5070934;28;19918;-76
2021/01/25 02:40:03;;;;;;;;;;;-1.50;99.90;;;;;;5086798;28;19912;-75
2021/01/25 02:42:29;;;;;;;;;;;-1.50;99.90;;;;;;5090983;28;19915;-75
2021/01/25 02:44:55;;;;;;;;;;;-1.50;99.90;;;;;;5090528;28;19908;-76
2021/01/25 02:47:21;;;;;;;;;;;-1.50;99.90;;;;;;5089991;28;19916;-75
2021/01/25 02:49:46;;;;;;;;;;;-1.40;99.90;;;;;;5090508;28;19915;-76
2021/01/25 02:52:13;;;;;;;;;;;-1.40;99.90;;;;;;5075995;28;19913;-76
2021/01/25 02:54:39;;;;;;;;;;;-1.30;99.90;;;;;;5069844;28;19908;-75
2021/01/25 02:57:06;;;;;;;;;;;-1.30;99.90;;;;;;5071775;28;19909;-76
2021/01/25 02:59:32;;;;;;;;;;;-1.20;99.90;;;;;;5080065;28;19909;-76
2021/01/25 03:01:58;;;;;;;;;;;-1.20;99.90;;;;;;5071036;28;19916;-75
2021/01/25 03:04:24;;;;;;;;;;;-1.20;99.90;;;;;;5078459;28;20368;-75
2021/01/25 03:06:50;;;;;;;;;;;-1.10;99.90;;;;;;5089948;28;20373;-76
2021/01/25 03:09:15;;;;;;;;;;;-1.10;99.90;;;;;;5090179;28;19953;-75
2021/01/25 03:11:41;;;;;;;;;;;-1.20;99.90;;;;;;5090287;28;19908;-75
2021/01/25 03:14:07;;;;;;;;;;;-1.20;99.90;;;;;;5090492;28;19954;-76
2021/01/25 03:16:33;;;;;;;;;;;-1.20;99.90;;;;;;5070422;28;19992;-75
2021/01/25 03:18:58;;;;;;;;;;;-1.20;99.90;;;;;;5090318;28;20022;-75
2021/01/25 03:21:24;;;;;;;;;;;-1.10;99.90;;;;;;5090157;28;19908;-75
2021/01/25 03:23:50;;;;;;;;;;;-1.10;99.90;;;;;;5090149;28;19998;-75
2021/01/25 03:26:16;;;;;;;;;;;-1.00;99.90;;;;;;5089530;28;20353;-78
2021/01/25 03:28:41;;;;;;;;;;;-1.00;99.90;;;;;;5084130;28;19919;-75
2021/01/25 03:31:07;;;;;;;;;;;-1.00;99.90;;;;;;5082884;28;20425;-75
2021/01/25 03:33:32;;;;;;;;;;;-0.90;99.90;;;;;;5086101;28;19924;-76
2021/01/25 03:35:58;;;;;;;;;;;-0.90;99.90;;;;;;5093550;28;19919;-75
2021/01/25 03:38:23;;;;;;;;;;;-0.90;99.90;;;;;;5093720;28;20003;-75
2021/01/25 03:40:49;;;;;;;;;;;-0.80;99.90;;;;;;5093775;28;19908;-75
2021/01/25 03:43:14;;;;;;;;;;;-0.80;99.90;;;;;;5093784;28;20014;-75
2021/01/25 03:45:40;;;;;;;;;;;-0.80;99.90;;;;;;5093301;28;20562;-75
2021/01/25 03:48:06;;;;;;;;;;;-0.80;99.90;;;;;;5093783;28;19919;-75
2021/01/25 03:50:31;;;;;;;;;;;-0.80;99.90;;;;;;5093534;28;20357;-75
2021/01/25 03:53:01;;;;;;;;;;;-0.80;99.90;;;;;;5077323;28;19909;-75
2021/01/25 03:55:26;;;;;;;;;;;-0.70;99.90;;;;;;5072761;28;20317;-75
2021/01/25 03:57:51;;;;;;;;;;;-0.70;99.90;;;;;;5082354;28;19966;-75
2021/01/25 04:00:17;;;;;;;;;;;-0.70;99.90;;;;;;5081295;28;20349;-75
2021/01/25 04:02:43;;;;;;;;;;;-0.60;99.90;;;;;;5073803;28;19920;-77
2021/01/25 04:05:08;;;;;;;;;;;-0.70;99.90;;;;;;5073916;28;19963;-75
2021/01/25 04:07:34;;;;;;;;;;;-0.70;99.90;;;;;;5073103;28;19936;-75
2021/01/25 04:09:59;;;;;;;;;;;-0.70;99.90;;;;;;5073559;28;19952;-75
2021/01/25 04:12:25;;;;;;;;;;;-0.70;99.90;;;;;;5073506;28;20419;-75
2021/01/25 04:14:50;;;;;;;;;;;-0.70;99.90;;;;;;5073506;28;19912;-75
2021/01/25 04:17:16;;;;;;;;;;;-0.70;99.90;;;;;;5073215;28;19916;-75
2021/01/25 04:19:41;;;;;;;;;;;-0.70;99.90;;;;;;5073346;28;19909;-77
2021/01/25 04:22:07;;;;;;;;;;;-0.70;99.90;;;;;;5073839;28;19908;-75
2021/01/25 04:24:33;;;;;;;;;;;-0.60;99.90;;;;;;5073560;28;20019;-75
2021/01/25 04:26:59;;;;;;;;;;;-0.70;99.90;;;;;;5073037;28;19912;-75
2021/01/25 04:29:25;;;;;;;;;;;-0.70;99.90;;;;;;5083653;28;19912;-75
2021/01/25 04:31:51;;;;;;;;;;;-0.80;99.90;;;;;;5073296;28;20335;-74
2021/01/25 04:34:17;;;;;;;;;;;-0.80;99.90;;;;;;5072215;28;19916;-74
2021/01/25 04:36:43;;;;;;;;;;;-0.80;99.90;;;;;;5072898;28;19917;-74
2021/01/25 04:39:08;;;;;;;;;;;-0.80;99.90;;;;;;5073022;28;19915;-74
2021/01/25 04:41:34;;;;;;;;;;;-0.80;99.90;;;;;;5073280;28;19915;-74
2021/01/25 04:44:00;;;;;;;;;;;-0.80;99.90;;;;;;5073748;28;20292;-74
2021/01/25 04:46:26;;;;;;;;;;;-0.80;99.90;;;;;;5071717;28;19912;-74
2021/01/25 04:48:51;;;;;;;;;;;-0.80;99.90;;;;;;5073100;28;19915;-74
2021/01/25 04:51:17;;;;;;;;;;;-0.80;99.90;;;;;;5073747;28;20003;-74
2021/01/25 04:53:45;;;;;;;;;;;-0.80;99.90;;;;;;5073100;28;20395;-74
2021/01/25 04:56:11;;;;;;;;;;;-0.70;99.90;;;;;;5072632;28;19944;-74
2021/01/25 04:58:37;;;;;;;;;;;-0.80;99.90;;;;;;5075928;28;19919;-74
2021/01/25 05:01:03;;;;;;;;;;;-0.80;99.90;;;;;;5080068;28;19912;-74
2021/01/25 05:03:28;;;;;;;;;;;-0.80;99.90;;;;;;5072955;28;20403;-74
2021/01/25 05:05:54;;;;;;;;;;;-0.70;99.90;;;;;;5072603;28;19931;-74
2021/01/25 05:08:20;;;;;;;;;;;-0.70;99.90;;;;;;5072882;28;19912;-74
2021/01/25 05:10:45;;;;;;;;;;;-0.70;99.90;;;;;;5072851;28;19919;-74
2021/01/25 05:13:19;;;;;;;;;;;-0.70;99.90;;;;;;5072848;28;19919;-74
2021/01/25 05:15:46;;;;;;;;;;;-0.70;99.90;;;;;;5072538;28;19909;-74
2021/01/25 05:18:13;;;;;;;;;;;-0.70;99.90;;;;;;5072762;28;20238;-74
2021/01/25 05:20:38;;;;;;;;;;;-0.70;99.90;;;;;;5071237;28;20376;-74
2021/01/25 05:23:13;;;;;;;;;;;-0.70;99.90;;;;;;5072731;28;19908;-74
2021/01/25 05:25:39;;;;;;;;;;;-0.70;99.90;;;;;;5072027;28;19908;-74
2021/01/25 05:28:18;;;;;;;;;;;-0.70;99.90;;;;;;5078785;28;20273;-74
2021/01/25 05:30:44;;;;;;;;;;;-0.80;99.90;;;;;;5078532;28;20284;-74
2021/01/25 05:33:09;;;;;;;;;;;-0.80;99.90;;;;;;5072442;28;19908;-74
2021/01/25 05:35:35;;;;;;;;;;;-0.70;99.90;;;;;;5072422;28;19971;-74
2021/01/25 05:38:03;;;;;;;;;;;-0.70;99.90;;;;;;5070691;28;19919;-74
2021/01/25 05:40:29;;;;;;;;;;;-0.70;99.90;;;;;;5072285;28;20306;-74
2021/01/25 05:42:55;;;;;;;;;;;-0.70;99.90;;;;;;5072287;28;19908;-74
2021/01/25 05:45:21;;;;;;;;;;;-0.70;99.90;;;;;;5072257;28;20115;-74
2021/01/25 05:47:47;;;;;;;;;;;-0.70;99.90;;;;;;5071645;28;19927;-75
2021/01/25 05:50:32;;;;;;;;;;;-0.70;99.90;;;;;;5071747;28;19981;-74
2021/01/25 05:52:58;;;;;;;;;;;-0.80;99.90;;;;;;5070744;28;20289;-75
2021/01/25 05:55:24;;;;;;;;;;;-0.80;99.90;;;;;;5072102;28;19908;-75
2021/01/25 05:57:50;;;;;;;;;;;-0.90;99.90;;;;;;5078145;28;19957;-75
2021/01/25 06:00:15;;;;;;;;;;;-0.90;99.90;;;;;;5077363;28;19916;-74
2021/01/25 06:02:42;;;;;;;;;;;-0.90;99.90;;;;;;5072047;28;20545;-74
2021/01/25 06:05:09;;;;;;;;;;;-0.90;99.90;;;;;;5071717;28;20417;-74
2021/01/25 06:07:34;;;;;;;;;;;-1.00;99.90;;;;;;5071625;28;19921;-74
2021/01/25 06:10:02;;;;;;;;;;;-1.00;99.90;;;;;;5071737;28;19912;-74
2021/01/25 06:12:43;;;;;;;;;;;-1.10;99.90;;;;;;5089497;28;20258;-74
2021/01/25 06:15:10;;;;;;;;;;;-1.20;99.90;;;;;;5091213;28;20372;-74
2021/01/25 06:17:38;;;;;;;;;;;-1.40;99.90;;;;;;5090624;28;19912;-75
2021/01/25 06:20:05;;;;;;;;;;;-1.50;99.90;;;;;;5089638;28;19955;-75
2021/01/25 06:22:30;;;;;;;;;;;-1.60;99.90;;;;;;5091166;28;19908;-74
2021/01/25 06:24:57;;;;;;;;;;;-1.80;99.90;;;;;;5090923;28;20365;-74
2021/01/25 06:27:25;;;;;;;;;;;-1.90;99.90;;;;;;5082099;28;19916;-74
2021/01/25 06:29:51;;;;;;;;;;;-2.00;99.90;;;;;;5082073;28;19919;-75
2021/01/25 06:32:16;;;;;;;;;;;-2.00;99.90;;;;;;5072119;28;19912;-74
2021/01/25 06:34:42;;;;;;;;;;;-2.10;99.90;;;;;;5071565;28;19966;-74
2021/01/25 06:37:09;;;;;;;;;;;-2.20;99.90;;;;;;5071307;28;20008;-74
2021/01/25 06:39:34;;;;;;;;;;;-2.30;99.90;;;;;;5071554;28;19916;-75
2021/01/25 06:42:01;;;;;;;;;;;-2.30;99.90;;;;;;5083341;28;19908;-75
2021/01/25 06:44:28;;;;;;;;;;;-2.30;99.90;;;;;;5071459;28;20273;-75
2021/01/25 06:46:57;;;;;;;;;;;-2.20;99.90;;;;;;5090838;28;19920;-74
2021/01/25 06:49:23;;;;;;;;;;;-2.10;99.90;;;;;;5090965;28;19919;-74
2021/01/25 06:51:50;;;;;;;;;;;-2.00;99.90;;;;;;5090990;28;19908;-74
2021/01/25 06:54:15;;;;;;;;;;;-1.90;99.90;;;;;;5091041;28;19954;-74
2021/01/25 06:56:44;;;;;;;;;;;-1.90;99.90;;;;;;5086634;28;20362;-74
2021/01/25 06:59:11;;;;;;;;;;;-1.90;99.90;;;;;;5078995;28;19909;-74
2021/01/25 07:01:39;;;;;;;;;;;-1.80;99.90;;;;;;5090684;28;19909;-74
2021/01/25 07:04:10;;;;;;;;;;;-1.70;99.90;;;;;;5094681;28;19909;-74
2021/01/25 07:06:36;;;;;;;;;;;-1.70;99.90;;;;;;5093163;28;19912;-74
2021/01/25 07:09:03;;;;;;;;;;;-1.60;99.90;;;;;;5094543;28;20272;-74
2021/01/25 07:11:29;;;;;;;;;;;-1.50;99.90;;;;;;5075202;28;19908;-75
2021/01/25 07:13:55;;;;;;;;;;;-1.50;99.90;;;;;;5074880;28;19916;-74
2021/01/25 07:16:22;;;;;;;;;;;-1.40;99.90;;;;;;5075045;28;19998;-74
2021/01/25 07:18:49;;;;;;;;;;;-1.30;99.90;;;;;;5075070;28;20381;-74
2021/01/25 07:21:17;;;;;;;;;;;-1.30;99.90;;;;;;5074799;28;20281;-75
2021/01/25 07:23:43;;;;;;;;;;;-1.30;99.90;;;;;;5074641;28;19915;-74
2021/01/25 07:26:13;;;;;;;;;;;-1.20;99.90;;;;;;5079324;28;19965;-74
2021/01/25 07:28:39;;;;;;;;;;;-1.30;99.90;;;;;;5073876;28;19915;-75
2021/01/25 07:31:05;;;;;;;;;;;-1.30;99.90;;;;;;5075260;28;19952;-74
2021/01/25 07:33:30;;;;;;;;;;;-1.20;99.90;;;;;;5074773;28;19909;-74
2021/01/25 07:35:58;;;;;;;;;;;-1.20;99.90;;;;;;5086920;28;19915;-75
2021/01/25 07:38:28;;;;;;;;;;;-1.10;99.90;;;;;;5093964;28;20412;-75
2021/01/25 07:40:57;;;;;;;;;;;-1.00;99.90;;;;;;5094240;28;19972;-74
2021/01/25 07:43:24;;;;;;;;;;;-0.90;99.90;;;;;;5088261;28;20250;-74
2021/01/25 07:45:51;;;;;;;;;;;-0.80;99.90;;;;;;5089089;28;19991;-74
2021/01/25 07:48:17;;;;;;;;;;;-0.80;99.90;;;;;;5092737;28;20345;-75
2021/01/25 07:50:52;;;;;;;;;;;-0.70;99.90;;;;;;5093894;28;20019;-75
2021/01/25 07:53:18;;;;;;;;;;;-0.60;99.90;;;;;;5091214;28;19942;-74
2021/01/25 07:55:43;;;;;;;;;;;-0.50;99.90;;;;;;5080033;28;19951;-74
2021/01/25 07:58:09;;;;;;;;;;;-0.40;99.90;;;;;;5078432;28;19910;-74
2021/01/25 08:00:37;;;;;;;;;;;-0.40;99.90;;;;;;5080609;28;19908;-74
2021/01/25 08:03:12;;;;;;;;;;;-0.30;99.90;;;;;;5074717;28;19913;-75
2021/01/25 08:05:38;;;;;;;;;;;-0.20;99.90;;;;;;5087338;28;19915;-74
2021/01/25 08:08:04;;;;;;;;;;;-0.20;99.90;;;;;;5077464;28;19912;-74
2021/01/25 08:10:31;;;;;;;;;;;-0.10;99.90;;;;;;5079864;28;19912;-74
2021/01/25 08:12:57;;;;;;;;;;;-0.10;99.90;;;;;;5079492;28;19908;-74
2021/01/25 08:15:27;;;;;;;;;;;0.00;99.90;;;;;;5080150;28;20509;-75
2021/01/25 08:18:00;;;;;;;;;;;0.10;99.90;;;;;;5088949;28;20106;-75
2021/01/25 08:20:28;;;;;;;;;;;0.20;99.90;;;;;;5079859;28;19915;-75
2021/01/25 08:23:06;;;;;;;;;;;0.30;99.90;;;;;;5081294;28;19931;-74
2021/01/25 08:25:31;;;;;;;;;;;0.40;99.90;;;;;;5078591;28;19908;-74
2021/01/25 08:28:03;;;;;;;;;;;0.40;99.90;;;;;;5084628;28;19912;-74
2021/01/25 08:30:34;;;;;;;;;;;0.50;99.90;;;;;;5078642;28;20332;-74
2021/01/25 08:33:02;;;;;;;;;;;0.50;99.90;;;;;;5083910;28;20002;-74
2021/01/25 08:35:27;;;;;;;;;;;0.60;99.90;;;;;;5086550;28;19908;-74
2021/01/25 08:37:52;;;;;;;;;;;0.60;99.90;;;;;;5081130;28;20006;-74
2021/01/25 08:40:22;;;;;;;;;;;0.60;99.90;;;;;;5077930;28;20378;-74
2021/01/25 08:42:48;;;;;;;;;;;0.70;99.90;;;;;;5077181;28;19908;-74
2021/01/25 08:45:21;;;;;;;;;;;0.70;99.90;;;;;;5087077;28;20349;-74
2021/01/25 08:47:47;;;;;;;;;;;0.70;99.90;;;;;;5085390;28;19931;-75
2021/01/25 08:50:24;;;;;;;;;;;0.70;99.90;;;;;;5074480;28;20001;-74
2021/01/25 08:52:57;;;;;;;;;;;0.80;99.90;;;;;;5074752;28;19909;-74
2021/01/25 08:55:29;;;;;;;;;;;0.90;99.90;;;;;;5088022;28;20284;-74
2021/01/25 08:57:54;;;;;;;;;;;1.00;99.90;;;;;;5076783;28;19951;-74
2021/01/25 09:00:42;;;;;;;;;;;1.20;99.90;;;;;;5078916;28;19948;-74
2021/01/25 09:03:10;;;;;;;;;;;1.30;99.90;;;;;;5083986;28;19934;-74
2021/01/25 09:05:35;;;;;;;;;;;1.40;99.90;;;;;;5081292;28;19916;-74
2021/01/25 09:08:01;;;;;;;;;;;1.40;99.90;;;;;;5072719;28;19912;-75
2021/01/25 09:10:26;;;;;;;;;;;1.50;99.90;;;;;;5085702;28;20616;-75
2021/01/25 09:12:52;;;;;;;;;;;1.60;99.90;;;;;;5086158;28;19960;-74
2021/01/25 09:15:18;;;;;;;;;;;1.70;99.90;;;;;;5073669;28;19962;-75
2021/01/25 09:17:44;;;;;;;;;;;1.80;99.90;;;;;;5078792;28;19912;-75
2021/01/25 09:20:09;;;;;;;;;;;1.90;99.90;;;;;;5082413;28;19915;-75
2021/01/25 09:22:35;;;;;;;;;;;2.00;99.90;;;;;;5085411;28;19909;-75
2021/01/25 09:25:01;;;;;;;;;;;2.10;99.90;;;;;;5079125;28;20284;-75
2021/01/25 09:27:26;;;;;;;;;;;2.20;99.90;;;;;;5071118;28;19912;-75
2021/01/25 09:29:52;;;;;;;;;;;2.20;99.90;;;;;;5081967;28;19961;-75
2021/01/25 09:32:17;;;;;;;;;;;2.20;99.90;;;;;;5077265;28;19917;-74
2021/01/25 09:34:43;;;;;;;;;;;2.20;99.90;;;;;;5088316;28;19916;-74
2021/01/25 09:37:09;;;;;;;;;;;2.20;99.90;;;;;;5079368;28;19916;-74
2021/01/25 09:39:36;;;;;;;;;;;2.10;99.90;;;;;;5084467;28;19908;-74
2021/01/25 09:42:01;;;;;;;;;;;2.00;99.90;;;;;;5085621;28;19997;-74
2021/01/25 09:44:27;;;;;;;;;;;2.00;99.90;;;;;;5077629;28;19994;-75
2021/01/25 09:46:52;;;;;;;;;;;2.00;99.90;;;;;;5085542;28;20201;-75
2021/01/25 09:49:18;;;;;;;;;;;2.00;99.90;;;;;;5081293;28;20310;-75
2021/01/25 09:51:46;;;;;;;;;;;2.00;99.90;;;;;;5074874;28;19908;-75
2021/01/25 09:54:11;;;;;;;;;;;2.10;99.90;;;;;;5078344;28;19908;-75
2021/01/25 09:56:37;;;;;;;;;;;2.30;99.90;;;;;;5078706;28;19908;-75
2021/01/25 09:59:03;;;;;;;;;;;2.30;99.90;;;;;;5078336;28;19938;-75
2021/01/25 10:01:29;;;;;;;;;;;2.40;99.90;;;;;;5079183;28;19908;-75
2021/01/25 10:03:55;;;;;;;;;;;2.50;99.90;;;;;;5078219;28;20190;-74
2021/01/25 10:06:20;;;;;;;;;;;2.60;99.90;;;;;;5074967;28;19913;-75
2021/01/25 10:08:47;;;;;;;;;;;2.70;99.90;;;;;;5078604;28;19909;-75
2021/01/25 10:11:13;;;;;;;;;;;2.70;99.90;;;;;;5081503;28;19908;-75
2021/01/25 10:13:38;;;;;;;;;;;2.70;99.90;;;;;;5078599;28;19923;-75
2021/01/25 10:16:04;;;;;;;;;;;2.70;99.90;;;;;;5088782;28;19915;-75
2021/01/25 10:18:29;;;;;;;;;;;2.70;99.90;;;;;;5077995;28;19909;-75
2021/01/25 10:20:55;;;;;;;;;;;2.70;99.90;;;;;;5078908;28;19920;-75
2021/01/25 10:23:21;;;;;;;;;;;2.80;99.90;;;;;;5078274;28;20387;-75
2021/01/25 10:25:47;;;;;;;;;;;2.80;99.90;;;;;;5082097;28;19988;-75
2021/01/25 10:28:12;;;;;;;;;;;2.90;99.90;;;;;;5080847;28;19970;-75
2021/01/25 10:30:38;;;;;;;;;;;2.90;99.90;;;;;;5074133;28;19916;-75
2021/01/25 10:33:03;;;;;;;;;;;2.90;99.90;;;;;;5075469;28;20242;-75
2021/01/25 10:35:29;;;;;;;;;;;3.00;99.90;;;;;;5076152;28;19908;-75
2021/01/25 10:37:54;;;;;;;;;;;3.00;99.90;;;;;;5076421;28;19994;-75
2021/01/25 10:40:20;;;;;;;;;;;3.20;99.90;;;;;;5075844;28;20050;-75
2021/01/25 10:42:46;;;;;;;;;;;3.30;99.90;;;;;;5080445;28;19915;-75
2021/01/25 10:45:11;;;;;;;;;;;3.30;99.90;;;;;;5076263;28;19916;-75
2021/01/25 10:47:37;;;;;;;;;;;3.40;99.90;;;;;;5078542;28;20332;-75
2021/01/25 10:50:04;;;;;;;;;;;3.50;99.90;;;;;;5070606;28;21515;-75
2021/01/25 10:52:29;;;;;;;;;;;3.60;99.90;;;;;;5080755;28;19909;-75
2021/01/25 10:54:54;;;;;;;;;;;3.80;99.90;;;;;;5076392;28;20323;-75
2021/01/25 10:57:20;;;;;;;;;;;3.90;99.90;;;;;;5077220;28;19913;-75
2021/01/25 10:59:46;;;;;;;;;;;4.00;99.90;;;;;;5078251;28;19915;-75
2021/01/25 11:02:12;;;;;;;;;;;4.00;99.90;;;;;;5076260;28;19916;-75
2021/01/25 11:04:37;;;;;;;;;;;4.00;99.90;;;;;;5077677;28;19908;-75
2021/01/25 11:07:03;;;;;;;;;;;4.00;99.90;;;;;;5081143;28;20376;-75
2021/01/25 11:09:29;;;;;;;;;;;4.00;99.90;;;;;;5075465;28;19912;-75
2021/01/25 11:11:54;;;;;;;;;;;4.10;99.90;;;;;;5075348;28;19916;-75
2021/01/25 11:14:20;;;;;;;;;;;4.20;99.90;;;;;;5079100;28;19916;-75
2021/01/25 11:16:45;;;;;;;;;;;4.30;99.90;;;;;;5071263;28;19915;-75
2021/01/25 11:19:11;;;;;;;;;;;4.20;99.90;;;;;;5073627;28;19908;-74
2021/01/25 11:21:38;;;;;;;;;;;4.30;99.90;;;;;;5078703;28;19957;-75
2021/01/25 11:24:04;;;;;;;;;;;4.40;99.90;;;;;;5087241;28;19912;-75
2021/01/25 11:26:32;;;;;;;;;;;4.50;99.90;;;;;;5077420;28;20305;-75
2021/01/25 11:28:57;;;;;;;;;;;4.70;99.90;;;;;;5090633;28;19912;-75
2021/01/25 11:31:23;;;;;;;;;;;4.70;99.90;;;;;;5086719;28;20467;-75
2021/01/25 11:33:48;;;;;;;;;;;4.70;99.90;;;;;;5090778;28;19908;-75
2021/01/25 11:36:14;;;;;;;;;;;4.60;99.90;;;;;;5096556;28;19912;-75
2021/01/25 11:38:39;;;;;;;;;;;4.60;99.90;;;;;;5093711;28;20799;-75
2021/01/25 11:41:05;;;;;;;;;;;4.50;99.90;;;;;;5087127;28;19912;-75
2021/01/25 11:43:30;;;;;;;;;;;4.50;99.90;;;;;;5083624;28;20416;-75
2021/01/25 11:45:56;;;;;;;;;;;4.50;99.90;;;;;;5098675;28;19914;-75
2021/01/25 11:48:21;;;;;;;;;;;4.50;99.90;;;;;;5084615;28;19974;-75
2021/01/25 11:50:48;;;;;;;;;;;4.40;99.90;;;;;;5092950;28;20369;-75
2021/01/25 11:53:14;;;;;;;;;;;4.40;99.90;;;;;;5091274;28;19912;-75
2021/01/25 11:55:41;;;;;;;;;;;4.30;99.90;;;;;;5083471;28;19908;-75
2021/01/25 11:58:07;;;;;;;;;;;4.20;99.90;;;;;;5095443;28;19915;-74
2021/01/25 12:00:32;;;;;;;;;;;4.20;99.90;;;;;;5092238;28;19920;-75
2021/01/25 12:02:58;;;;;;;;;;;4.10;99.90;;;;;;5086111;28;20412;-74
2021/01/25 12:05:23;;;;;;;;;;;3.90;99.90;;;;;;5089563;28;19908;-74
2021/01/25 12:07:49;;;;;;;;;;;3.80;99.90;;;;;;5084453;28;20017;-74
2021/01/25 12:10:14;;;;;;;;;;;3.80;99.90;;;;;;5074946;28;20392;-74
2021/01/25 12:12:40;;;;;;;;;;;3.70;99.90;;;;;;5077464;28;19908;-74
2021/01/25 12:15:06;;;;;;;;;;;3.80;99.90;;;;;;5084364;28;20019;-74
2021/01/25 12:17:31;;;;;;;;;;;3.70;99.90;;;;;;5086011;28;20284;-74
2021/01/25 12:19:56;;;;;;;;;;;3.70;99.90;;;;;;5074561;28;20373;-74
2021/01/25 12:22:23;;;;;;;;;;;3.70;99.90;;;;;;5075136;28;19916;-74
2021/01/25 12:24:48;;;;;;;;;;;3.70;99.90;;;;;;5078489;28;19944;-74
2021/01/25 12:27:14;;;;;;;;;;;3.70;99.90;;;;;;5083113;28;19974;-74
2021/01/25 12:29:39;;;;;;;;;;;3.70;99.90;;;;;;5076566;28;20322;-75
2021/01/25 12:32:05;;;;;;;;;;;3.80;99.90;;;;;;5073331;28;20790;-74
2021/01/25 12:34:32;;;;;;;;;;;3.80;99.90;;;;;;5079313;28;20309;-74
2021/01/25 12:36:57;;;;;;;;;;;3.80;99.90;;;;;;5079024;28;19919;-74
2021/01/25 12:39:23;;;;;;;;;;;3.80;99.90;;;;;;5081616;28;19909;-74
2021/01/25 12:41:48;;;;;;;;;;;3.80;99.90;;;;;;5080553;28;19920;-75
2021/01/25 12:44:14;;;;;;;;;;;3.80;99.90;;;;;;5082186;28;19907;-75
2021/01/25 12:46:40;;;;;;;;;;;3.80;99.90;;;;;;5077928;28;19939;-74
2021/01/25 12:49:06;;;;;;;;;;;3.80;99.90;;;;;;5082098;28;19917;-74
2021/01/25 12:51:32;;;;;;;;;;;3.70;99.90;;;;;;5079391;28;20369;-74
2021/01/25 12:53:58;;;;;;;;;;;3.70;99.90;;;;;;5088674;28;19912;-74
2021/01/25 12:56:23;;;;;;;;;;;3.60;99.90;;;;;;5075170;28;19908;-74
2021/01/25 12:58:49;;;;;;;;;;;3.60;99.90;;;;;;5076789;28;20384;-75
2021/01/25 13:01:14;;;;;;;;;;;3.60;99.90;;;;;;5068487;28;19909;-74
2021/01/25 13:03:40;;;;;;;;;;;3.60;99.90;;;;;;5074248;28;19954;-74
2021/01/25 13:06:06;;;;;;;;;;;3.70;99.90;;;;;;5074233;28;19908;-74
2021/01/25 13:08:32;;;;;;;;;;;3.70;99.90;;;;;;5087360;28;19975;-74
2021/01/25 13:10:57;;;;;;;;;;;3.60;99.90;;;;;;5080996;28;19963;-74
2021/01/25 13:13:23;;;;;;;;;;;3.60;99.90;;;;;;5092704;28;20001;-75
2021/01/25 13:15:48;;;;;;;;;;;3.70;99.90;;;;;;5086079;28;19948;-75
2021/01/25 13:18:14;;;;;;;;;;;3.70;99.90;;;;;;5072886;28;19917;-75
2021/01/25 13:20:39;;;;;;;;;;;3.70;99.90;;;;;;5084960;28;20404;-75
2021/01/25 13:23:05;;;;;;;;;;;3.50;99.90;;;;;;5073705;28;19954;-75
2021/01/25 13:25:30;;;;;;;;;;;3.40;99.90;;;;;;5083020;28;19962;-75
2021/01/25 13:27:56;;;;;;;;;;;3.40;99.90;;;;;;5076922;28;19912;-75
2021/01/25 13:30:23;;;;;;;;;;;3.30;99.90;;;;;;5084889;28;19912;-75
2021/01/25 13:32:48;;;;;;;;;;;3.10;99.90;;;;;;5077132;28;19908;-75
2021/01/25 13:35:15;;;;;;;;;;;3.10;99.90;;;;;;5085989;28;20430;-75
2021/01/25 13:37:41;;;;;;;;;;;2.90;99.90;;;;;;5076196;28;19912;-75
2021/01/25 13:40:07;;;;;;;;;;;2.80;99.90;;;;;;5077229;28;19915;-75
2021/01/25 13:42:33;;;;;;;;;;;2.80;99.90;;;;;;5084045;28;20585;-75
2021/01/25 13:44:59;;;;;;;;;;;2.70;99.90;;;;;;5076607;28;19948;-75
2021/01/25 13:47:24;;;;;;;;;;;2.60;99.90;;;;;;5077737;28;19947;-75
2021/01/25 13:49:50;;;;;;;;;;;2.60;99.90;;;;;;5076115;28;19913;-75
2021/01/25 13:52:15;;;;;;;;;;;2.50;99.90;;;;;;5076018;28;20361;-75
2021/01/25 13:54:40;;;;;;;;;;;2.60;99.90;;;;;;5076604;28;19908;-75
2021/01/25 13:57:07;;;;;;;;;;;2.60;99.90;;;;;;5078446;28;19912;-75
2021/01/25 13:59:32;;;;;;;;;;;2.60;99.90;;;;;;5089456;28;19931;-75
2021/01/25 14:01:58;;;;;;;;;;;2.60;99.90;;;;;;5084647;28;20451;-75
2021/01/25 14:04:23;;;;;;;;;;;2.70;99.90;;;;;;5085634;28;20270;-75
2021/01/25 14:06:49;;;;;;;;;;;2.80;99.90;;;;;;5082951;28;20368;-75
2021/01/25 14:09:14;;;;;;;;;;;2.80;99.90;;;;;;5082178;28;19915;-75
2021/01/25 14:11:40;;;;;;;;;;;2.80;99.90;;;;;;5071891;28;19912;-75
2021/01/25 14:14:05;;;;;;;;;;;2.70;99.90;;;;;;5081357;28;20300;-75
2021/01/25 14:16:31;;;;;;;;;;;2.70;99.90;;;;;;5078801;28;19909;-75
2021/01/25 14:18:56;;;;;;;;;;;2.70;99.90;;;;;;5083200;28;19912;-75